Terminal Aerodrome Forecast
Issued by NWS

Current Version | Previous Version | Text Only | Print | Product List | Glossary On
Versions: 1 2 3 4 5 6 7 8 9 10 11 12 13 14 15 16 17 18 19 20 21 22 23 24 25 26 27 28 29 30
932
FTUS45 KGJT 061744
TAFCNY
TAF
KCNY 061744Z 0618/0718 26010KT P6SM SCT110
     FM061900 18015G26KT P6SM VCTS SCT080 SCT110CB
     FM062100 19020G34KT P6SM VCTS BKN110CB
     FM070000 20014G23KT P6SM BKN200
     FM070300 VRB03KT P6SM BKN100=

USA.gov is the U.S. government's official web portal to all federal, state and local government web resources and services.